createdAt,value
2022-09-05T00:03:14.146Z,96610.50
2022-09-05T00:06:17.091Z,96606.31
2022-09-05T00:09:18.688Z,96605.47
2022-09-05T00:12:22.781Z,96601.28
2022-09-05T00:15:52.093Z,96599.59
2022-09-05T00:24:18.659Z,96612.22
2022-09-05T00:24:29.218Z,96593.91
2022-09-05T00:26:49.947Z,96595.78
2022-09-05T00:31:45.630Z,96592.25
2022-09-05T00:34:15.650Z,96585.72
2022-09-05T00:37:48.945Z,96581.72
2022-09-05T00:41:02.302Z,96587.63
2022-09-05T00:44:06.391Z,96587.78
2022-09-05T00:47:17.992Z,96596.06
2022-09-05T00:50:44.436Z,96593.88
2022-09-05T00:54:04.308Z,96602.13
2022-09-05T00:57:31.473Z,96608.91
2022-09-05T01:00:33.091Z,96604.06
2022-09-05T01:03:34.692Z,96604.22
2022-09-05T01:07:03.481Z,96608.25
2022-09-05T01:10:15.073Z,96622.38
2022-09-05T01:13:35.957Z,96620.53
2022-09-05T01:17:08.705Z,96622.94
2022-09-05T01:20:19.654Z,96618.94
2022-09-05T01:23:40.879Z,96623.78
2022-09-05T01:26:45.489Z,96621.44
2022-09-05T01:29:53.397Z,96620.97
2022-09-05T01:33:07.667Z,96620.47
2022-09-05T01:36:31.746Z,96616.47
2022-09-05T01:40:15.069Z,96624.84
2022-09-05T01:43:25.795Z,96620.00
2022-09-05T01:46:44.445Z,96616.00
2022-09-05T01:49:49.494Z,96616.34
2022-09-05T01:53:11.244Z,96617.72
2022-09-05T01:56:26.761Z,96623.41
2022-09-05T01:59:45.916Z,96619.41
2022-09-05T02:03:19.418Z,96628.81
2022-09-05T02:07:20.106Z,96618.44
2022-09-05T02:10:38.632Z,96622.28
2022-09-05T02:13:40.461Z,96629.84
2022-09-05T02:16:44.621Z,96622.28
2022-09-05T02:20:25.269Z,96636.72
2022-09-05T02:23:57.067Z,96631.72
2022-09-05T02:27:28.276Z,96630.19
2022-09-05T02:30:49.337Z,96623.16
2022-09-05T02:34:13.008Z,96624.16
2022-09-05T02:37:43.834Z,96627.84
2022-09-05T02:45:06.290Z,96625.50
2022-09-05T02:45:10.985Z,96615.94
2022-09-05T02:48:06.962Z,96614.94
2022-09-05T02:57:25.983Z,96623.00
2022-09-05T02:57:42.484Z,96621.84
2022-09-05T02:59:08.545Z,96622.69
2022-09-05T03:02:27.134Z,96624.84
2022-09-05T03:05:38.376Z,96622.50
2022-09-05T03:08:43.063Z,96619.31
2022-09-05T03:12:29.316Z,96624.84
2022-09-05T03:16:12.083Z,96619.84
2022-09-05T03:19:46.047Z,96621.00
2022-09-05T03:23:13.149Z,96613.28
2022-09-05T03:26:33.035Z,96604.56
2022-09-05T03:29:34.689Z,96611.94
2022-09-05T03:32:48.961Z,96612.25
2022-09-05T03:36:11.891Z,96608.94
2022-09-05T03:39:32.475Z,96614.47
2022-09-05T03:43:09.632Z,96606.56
2022-09-05T03:46:42.087Z,96614.09
2022-09-05T03:56:36.897Z,96609.91
2022-09-05T03:57:14.938Z,96612.91
2022-09-05T03:57:43.448Z,96609.56
2022-09-05T04:01:17.560Z,96613.41
2022-09-05T04:08:14.410Z,96621.63
2022-09-05T04:08:15.798Z,96613.09
2022-09-05T04:11:32.067Z,96621.13
2022-09-05T04:14:55.882Z,96623.97
2022-09-05T04:18:04.011Z,96620.78
2022-09-05T04:21:15.279Z,96628.66
2022-09-05T04:24:36.771Z,96621.81
2022-09-05T04:27:54.054Z,96625.50
2022-09-05T04:31:04.916Z,96624.97
2022-09-05T04:34:09.635Z,96624.13
2022-09-05T04:37:30.458Z,96633.38
2022-09-05T04:41:04.533Z,96631.00
2022-09-05T04:44:16.415Z,96637.38
2022-09-05T04:47:23.633Z,96631.50
2022-09-05T04:50:37.621Z,96637.72
2022-09-05T04:53:59.893Z,96645.75
2022-09-05T04:57:14.308Z,96638.88
2022-09-05T05:06:02.543Z,96643.09
2022-09-05T05:06:09.238Z,96653.97
2022-09-05T05:07:34.099Z,96650.44
2022-09-05T05:13:30.685Z,96653.97
2022-09-05T05:18:14.835Z,96669.06
2022-09-05T05:18:15.778Z,96663.53
2022-09-05T05:21:21.046Z,96662.34
2022-09-05T05:24:35.740Z,96659.84
2022-09-05T05:27:46.884Z,96665.59
2022-09-05T05:30:48.785Z,96664.91
2022-09-05T05:33:56.194Z,96663.56
2022-09-05T05:37:24.439Z,96667.09
2022-09-05T05:40:31.621Z,96674.50
2022-09-05T05:43:46.548Z,96676.53
2022-09-05T05:47:03.581Z,96670.31
2022-09-05T05:50:26.953Z,96671.34
2022-09-05T05:53:55.337Z,96673.03
2022-09-05T05:57:19.750Z,96680.06
2022-09-05T06:00:40.653Z,96676.53
2022-09-05T06:04:05.471Z,96669.13
2022-09-05T06:07:19.160Z,96673.47
2022-09-05T06:14:50.624Z,96674.97
2022-09-05T06:15:33.928Z,96676.13
2022-09-05T06:18:45.672Z,96674.06
2022-09-05T06:22:09.279Z,96679.25
2022-09-05T06:25:41.132Z,96667.47
2022-09-05T06:28:45.846Z,96681.22
2022-09-05T06:31:56.568Z,96681.00
2022-09-05T06:35:17.043Z,96682.47
2022-09-05T06:38:33.858Z,96683.75
2022-09-05T06:42:33.375Z,96684.84
2022-09-05T06:45:58.841Z,96681.59
2022-09-05T06:49:30.091Z,96676.59
2022-09-05T06:52:42.036Z,96681.78
2022-09-05T06:56:02.421Z,96676.78
2022-09-05T06:59:30.122Z,96681.09
2022-09-05T07:03:00.221Z,96683.38
2022-09-05T07:06:19.848Z,96693.06
2022-09-05T07:09:52.055Z,96690.97
2022-09-05T07:13:19.735Z,96694.22
2022-09-05T07:16:38.521Z,96698.53
2022-09-05T07:20:02.232Z,96692.50
2022-09-05T07:24:05.685Z,96695.94
2022-09-05T07:26:54.620Z,96695.47
2022-09-05T07:30:01.738Z,96691.69
2022-09-05T07:33:04.741Z,96692.41
2022-09-05T07:36:14.864Z,96698.38
2022-09-05T07:39:28.845Z,96690.84
2022-09-05T07:42:38.177Z,96690.56
2022-09-05T07:45:55.419Z,96689.22
2022-09-05T07:49:05.830Z,96686.22
2022-09-05T07:56:56.894Z,96694.88
2022-09-05T07:57:09.947Z,96695.56
2022-09-05T07:59:08.587Z,96702.34
2022-09-05T08:02:12.883Z,96697.03
2022-09-05T08:05:26.049Z,96692.31
2022-09-05T08:09:21.882Z,96693.66
2022-09-05T08:13:23.044Z,96695.41
2022-09-05T08:16:13.318Z,96696.97
2022-09-05T08:19:54.706Z,96691.25
2022-09-05T08:23:34.563Z,96689.22
2022-09-05T08:26:56.982Z,96686.84
2022-09-05T08:30:26.527Z,96692.72
2022-09-05T08:33:36.505Z,96686.16
2022-09-05T08:36:41.316Z,96688.34
2022-09-05T08:39:45.188Z,96679.44
2022-09-05T08:46:23.474Z,96682.44
2022-09-05T08:46:49.261Z,96681.47
2022-09-05T08:49:54.845Z,96676.13
2022-09-05T08:53:18.665Z,96668.44
2022-09-05T08:56:37.544Z,96668.06
2022-09-05T09:00:18.688Z,96662.47
2022-09-05T09:03:35.958Z,96664.78
2022-09-05T09:07:47.285Z,96663.34
2022-09-05T09:10:57.741Z,96657.72
2022-09-05T09:14:31.183Z,96666.31
2022-09-05T09:17:43.040Z,96669.25
2022-09-05T09:20:54.178Z,96666.56
2022-09-05T09:24:31.053Z,96664.66
2022-09-05T09:28:46.547Z,96659.03
2022-09-05T09:31:33.260Z,96663.22
2022-09-05T09:35:06.194Z,96660.66
2022-09-05T09:38:19.687Z,96656.91
2022-09-05T09:41:45.284Z,96653.13
2022-09-05T09:45:28.743Z,96645.97
2022-09-05T09:48:37.875Z,96645.53
2022-09-05T09:52:02.410Z,96644.44
2022-09-05T09:55:40.923Z,96640.22
2022-09-05T09:58:56.682Z,96642.03
2022-09-05T10:03:15.517Z,96636.38
2022-09-05T10:10:53.341Z,96639.38
2022-09-05T10:10:54.666Z,96629.59
2022-09-05T10:13:25.725Z,96630.13
2022-09-05T10:16:47.540Z,96632.16
2022-09-05T10:20:29.336Z,96634.16
2022-09-05T10:23:49.704Z,96626.56
2022-09-05T10:27:13.647Z,96633.19
2022-09-05T10:30:33.403Z,96625.81
2022-09-05T10:35:12.866Z,96626.59
2022-09-05T10:37:21.906Z,96626.34
2022-09-05T10:40:27.336Z,96612.09
2022-09-05T10:43:34.015Z,96625.63
2022-09-05T10:46:57.527Z,96615.28
2022-09-05T10:50:08.406Z,96616.41
2022-09-05T10:53:41.556Z,96607.25
2022-09-05T10:56:50.522Z,96607.81
2022-09-05T11:02:16.131Z,96601.91
2022-09-05T11:04:11.423Z,96600.59
2022-09-05T11:07:55.013Z,96603.25
2022-09-05T11:11:26.045Z,96609.22
2022-09-05T11:14:57.177Z,96589.88
2022-09-05T11:18:05.630Z,96593.81
2022-09-05T11:21:09.692Z,96579.94
2022-09-05T11:24:30.083Z,96594.19
2022-09-05T11:27:43.708Z,96586.63
2022-09-05T11:30:53.404Z,96581.06
2022-09-05T11:39:51.262Z,96577.88
2022-09-05T11:40:02.337Z,96573.19
2022-09-05T11:41:32.777Z,96574.81
2022-09-05T11:44:45.090Z,96574.72
2022-09-05T11:48:07.541Z,96578.44
2022-09-05T11:51:47.513Z,96575.22
2022-09-05T11:55:20.603Z,96577.03
2022-09-05T11:58:44.775Z,96566.50
2022-09-05T12:02:24.213Z,96577.28
2022-09-05T12:05:58.786Z,96570.78
2022-09-05T12:09:26.952Z,96574.69
2022-09-05T12:12:42.020Z,96573.41
2022-09-05T12:15:52.059Z,96562.19
2022-09-05T12:19:19.245Z,96568.72
2022-09-05T12:22:39.077Z,96561.50
2022-09-05T12:27:42.467Z,96558.41
2022-09-05T12:29:29.662Z,96560.31
2022-09-05T12:36:05.860Z,96557.81
2022-09-05T12:40:53.380Z,96563.06
2022-09-05T12:41:34.145Z,96542.50
2022-09-05T12:44:38.434Z,96541.66
2022-09-05T12:47:21.091Z,96537.38
2022-09-05T12:50:38.028Z,96547.00
2022-09-05T12:53:50.262Z,96546.78
2022-09-05T12:59:56.705Z,96540.00
2022-09-05T13:03:01.346Z,96537.88
2022-09-05T13:04:18.459Z,96535.25
2022-09-05T13:07:27.686Z,96539.19
2022-09-05T13:13:48.581Z,96530.25
2022-09-05T13:14:56.314Z,96527.66
2022-09-05T13:17:43.012Z,96526.47
2022-09-05T13:21:10.662Z,96523.38
2022-09-05T13:24:24.150Z,96516.97
2022-09-05T13:27:33.368Z,96507.81
2022-09-05T13:37:56.358Z,96507.44
2022-09-05T13:38:06.159Z,96496.16
2022-09-05T13:38:30.808Z,96509.88
2022-09-05T13:41:26.842Z,96500.88
2022-09-05T13:44:37.127Z,96488.44
2022-09-05T13:47:41.732Z,96492.94
2022-09-05T13:50:52.878Z,96480.50
2022-09-05T13:54:05.465Z,96484.88
2022-09-05T13:57:36.502Z,96478.09
2022-09-05T14:00:38.614Z,96473.66
2022-09-05T14:03:50.433Z,96472.38
2022-09-05T14:10:43.581Z,96470.91
2022-09-05T14:14:02.244Z,96467.53
2022-09-05T14:21:08.696Z,96456.84
2022-09-05T14:24:27.787Z,96461.88
2022-09-05T14:27:32.730Z,96458.16
2022-09-05T14:33:11.046Z,96457.28
2022-09-05T14:37:43.765Z,96450.75
2022-09-05T14:38:39.029Z,96454.13
2022-09-05T14:42:09.569Z,96445.09
2022-09-05T14:45:15.569Z,96445.41
2022-09-05T14:48:35.614Z,96431.53
2022-09-05T14:51:39.178Z,96439.75
2022-09-05T15:02:41.740Z,96426.00
2022-09-05T15:02:48.794Z,96435.22
2022-09-05T15:05:11.178Z,96437.00
2022-09-05T15:08:52.568Z,96432.50
2022-09-05T15:12:23.055Z,96428.59
2022-09-05T15:15:03.533Z,96429.09
2022-09-05T15:18:39.261Z,96425.72
2022-09-05T15:21:43.368Z,96439.13
2022-09-05T15:24:59.351Z,96437.28
2022-09-05T15:28:30.149Z,96435.03
2022-09-05T15:31:31.777Z,96428.75
2022-09-05T15:34:33.431Z,96424.28
2022-09-05T15:37:41.076Z,96417.47
2022-09-05T15:40:43.288Z,96411.69
2022-09-05T15:43:58.232Z,96413.50
2022-09-05T15:47:03.529Z,96407.53
2022-09-05T15:50:19.004Z,96398.50
2022-09-05T15:53:30.828Z,96404.56
2022-09-05T15:56:36.829Z,96403.47
2022-09-05T15:59:47.287Z,96410.63
2022-09-05T16:03:03.940Z,96403.78
2022-09-05T16:10:43.606Z,96403.78
2022-09-05T16:10:50.569Z,96403.22
2022-09-05T16:12:58.855Z,96400.47
2022-09-05T16:21:35.649Z,96417.81
2022-09-05T16:23:32.026Z,96410.63
2022-09-05T16:23:41.832Z,96411.91
2022-09-05T16:26:48.356Z,96400.47
2022-09-05T16:29:51.705Z,96407.19
2022-09-05T16:32:59.597Z,96398.47
2022-09-05T16:36:19.594Z,96402.63
2022-09-05T16:39:25.155Z,96401.53
2022-09-05T16:42:47.092Z,96397.72
2022-09-05T16:46:16.784Z,96396.06
2022-09-05T16:49:43.179Z,96396.53
2022-09-05T16:52:53.176Z,96391.91
2022-09-05T16:56:18.118Z,96399.84
2022-09-05T16:59:23.064Z,96396.53
2022-09-05T17:02:36.727Z,96393.00
2022-09-05T17:05:48.319Z,96384.22
2022-09-05T17:08:52.575Z,96379.00
2022-09-05T17:12:02.195Z,96381.47
2022-09-05T17:15:38.188Z,96385.00
2022-09-05T17:18:59.494Z,96383.56
2022-09-05T17:27:55.454Z,96382.97
2022-09-05T17:29:32.368Z,96384.69
2022-09-05T17:32:55.708Z,96377.78
2022-09-05T17:36:06.698Z,96387.53
2022-09-05T17:39:44.457Z,96382.66
2022-09-05T17:43:01.009Z,96388.81
2022-09-05T17:46:16.260Z,96386.22
2022-09-05T17:49:43.294Z,96384.63
2022-09-05T17:53:26.759Z,96386.09
2022-09-05T17:56:38.141Z,96388.06
2022-09-05T17:59:39.838Z,96386.38
2022-09-05T18:02:56.856Z,96389.28
2022-09-05T18:06:04.536Z,96397.03
2022-09-05T18:09:09.301Z,96392.28
2022-09-05T18:13:11.645Z,96389.31
2022-09-05T18:16:11.504Z,96389.69
2022-09-05T18:22:40.755Z,96398.50
2022-09-05T18:25:55.030Z,96404.25
2022-09-05T18:29:14.921Z,96403.91
2022-09-05T18:32:38.494Z,96398.56
2022-09-05T18:35:48.018Z,96403.47
2022-09-05T18:39:24.886Z,96406.91
2022-09-05T18:42:33.872Z,96414.72
2022-09-05T18:45:38.113Z,96413.56
2022-09-05T18:50:26.848Z,96422.19
2022-09-05T18:52:44.462Z,96420.19
2022-09-05T18:56:14.054Z,96414.19
2022-09-05T18:59:30.586Z,96413.78
2022-09-05T19:02:59.065Z,96413.81
2022-09-05T19:06:36.556Z,96423.06
2022-09-05T19:09:36.349Z,96417.28
2022-09-05T19:12:47.988Z,96419.41
2022-09-05T19:16:33.136Z,96423.81
2022-09-05T19:20:33.220Z,96421.75
2022-09-05T19:23:53.640Z,96423.03
2022-09-05T19:27:39.599Z,96421.41
2022-09-05T19:36:59.028Z,96423.53
2022-09-05T19:37:05.768Z,96422.25
2022-09-05T19:37:29.164Z,96421.84
2022-09-05T19:47:10.998Z,96422.72
2022-09-05T19:47:50.278Z,96423.53
2022-09-05T19:48:04.064Z,96422.94
2022-09-05T19:51:17.235Z,96417.31
2022-09-05T19:54:35.299Z,96422.53
2022-09-05T19:57:37.495Z,96413.78
2022-09-05T20:00:41.328Z,96417.31
2022-09-05T20:03:48.459Z,96417.97
2022-09-05T20:06:50.470Z,96412.31
2022-09-05T20:09:54.145Z,96407.75
2022-09-05T20:12:56.860Z,96401.28
2022-09-05T20:16:01.853Z,96405.47
2022-09-05T20:19:06.679Z,96405.25
2022-09-05T20:22:47.913Z,96399.44
2022-09-05T20:25:40.763Z,96400.03
2022-09-05T20:28:45.560Z,96390.00
2022-09-05T20:31:47.450Z,96400.81
2022-09-05T20:36:31.330Z,96398.56
2022-09-05T20:43:24.586Z,96386.25
2022-09-05T20:43:27.682Z,96383.34
2022-09-05T20:45:11.155Z,96377.28
2022-09-05T20:54:13.918Z,96390.19
2022-09-05T20:54:20.536Z,96384.97
2022-09-05T20:55:37.768Z,96383.53
2022-09-05T20:58:38.751Z,96388.13
2022-09-05T21:01:42.748Z,96384.13
2022-09-05T21:05:19.842Z,96387.91
2022-09-05T21:08:34.621Z,96392.69
2022-09-05T21:11:36.386Z,96399.31
2022-09-05T21:14:38.119Z,96396.22
2022-09-05T21:17:39.889Z,96389.31
2022-09-05T21:20:52.101Z,96388.09
2022-09-05T21:24:16.226Z,96387.66
2022-09-05T21:27:25.221Z,96381.38
2022-09-05T21:30:31.140Z,96382.41
2022-09-05T21:33:45.950Z,96380.13
2022-09-05T21:36:49.911Z,96375.56
2022-09-05T21:40:06.069Z,96390.31
2022-09-05T21:47:32.970Z,96389.88
2022-09-05T21:47:47.918Z,96385.91
2022-09-05T21:49:55.088Z,96395.44
2022-09-05T21:53:37.937Z,96394.19
2022-09-05T21:59:20.005Z,96395.66
2022-09-05T21:59:52.593Z,96382.09
2022-09-05T22:02:54.894Z,96385.84
2022-09-05T22:05:56.700Z,96383.69
2022-09-05T22:09:13.879Z,96390.53
2022-09-05T22:12:30.699Z,96397.38
2022-09-05T22:15:32.672Z,96388.84
2022-09-05T22:18:38.817Z,96385.69
2022-09-05T22:21:40.654Z,96381.75
2022-09-05T22:24:46.828Z,96382.97
2022-09-05T22:27:50.154Z,96381.91
2022-09-05T22:30:52.267Z,96375.25
2022-09-05T22:33:54.069Z,96375.63
2022-09-05T22:36:56.161Z,96370.19
2022-09-05T22:39:57.913Z,96372.25
2022-09-05T22:43:02.187Z,96382.63
2022-09-05T22:46:04.310Z,96380.97
2022-09-05T22:49:06.048Z,96374.25
2022-09-05T22:52:10.076Z,96369.47
2022-09-05T22:55:12.023Z,96365.28
2022-09-05T22:58:14.973Z,96363.66
2022-09-05T23:01:16.744Z,96375.88
2022-09-05T23:04:18.549Z,96361.94
2022-09-05T23:07:20.986Z,96355.25
2022-09-05T23:10:22.613Z,96352.97
2022-09-05T23:13:26.930Z,96347.09
2022-09-05T23:16:28.775Z,96358.31
2022-09-05T23:19:30.973Z,96354.31
2022-09-05T23:22:36.012Z,96357.44
2022-09-05T23:25:37.686Z,96362.38
2022-09-05T23:28:43.106Z,96357.16
2022-09-05T23:31:45.243Z,96356.94
2022-09-05T23:34:46.912Z,96355.63
2022-09-05T23:37:48.930Z,96364.75
2022-09-05T23:40:50.562Z,96358.72
2022-09-05T23:43:52.301Z,96359.09
2022-09-05T23:46:53.948Z,96360.34
2022-09-05T23:49:58.101Z,96351.78
2022-09-05T23:53:03.732Z,96352.19
2022-09-05T23:56:07.361Z,96346.97
2022-09-05T23:59:09.126Z,96346.75
